Liberal Mid-America Regional Airport

Airport
ICAO code: 
KLBL
Summary
ICAO Region: 
NAM
Territory: 
Location: 
Liberal, Kansas,
Coordinates: 
Aerial View: 
37° 2' 39.001" N, 100° 57' 35.996" W
Airport CFIT: 
Altimeter Temperature Error Correction
Metar
Observation
KLBL 020856Z AUTO 25007KT 10SM CLR 04/M07 A3010 RMK AO2 SLP186 T00391067 56006
Station
Liberal, Liberal Municipal Airport
Date/Time
2021-12-02 08:56:00
Wind direction
250°
Wind speed
07 kts
Lowest cloud amount
n/a
Temperature
3.9°C
Dew point
-6.7°C
Humidity
45%
Weather condition
n/a

Description

Liberal Mid-America Regional Airport, formerly known as Liberal Municipal Airport, is a public-use airport located 4 km west of the central business district of Liberal, a city in Seward County, Kansas.

Climatology

Liberal has a semi-arid steppe climate (Köppen climate classification BSk) characterized by hot, dry summers and cold, dry winters.

Runways

Designator Length Width Surface Rops
4/22 1744 46 CONC-F Yes/Yes
17/35 2166 46 ASP Yes/Yes
Airport map: 
Aerial View: 

SKYbrary Partners:

Safety knowledge contributed by: